North Hoosick, New York
Current Conditions -  °F | °C
As of 10:54 AM on Wednesday 28 Jan 2015 (Local Time) from KDDH Reporting Station
Scattered Clouds Scattered Clouds  
Wind Chill:   Ceiling: Unl
Heat Index: 12°   Visibility: 10mi
Dew Point:   Wind: 7mph
Humidity: 64%   Direction: 310°NW
Pressure: 30.05"   Gusts: NA
Location:  42.93°N, 73.34°W
Report Text: KDDH 281554Z AUTO 31006KT 10SM FEW034 SCT120 M11/M17 A3005 RMK AO2 SLP194 T11111167
Loading
Personal Weather Stations






























Interactive Weather Map New forecast layout! Learn more

10-Day Weather Forecast

Advertisements
Track Severe Weather on mobile